createdAt,value
2019-04-05T00:06:33.781Z,6.00
2019-04-05T00:09:06.593Z,6.00
2019-04-05T00:14:08.560Z,6.00
2019-04-05T00:16:41.058Z,6.10
2019-04-05T00:24:13.556Z,5.90
2019-04-05T00:26:44.655Z,6.00
2019-04-05T00:29:17.510Z,6.10
2019-04-05T00:31:49.675Z,6.10
2019-04-05T00:34:22.595Z,6.10
2019-04-05T00:36:53.836Z,6.10
2019-04-05T00:39:23.618Z,6.10
2019-04-05T00:41:54.711Z,6.20
2019-04-05T00:49:26.279Z,6.10
2019-04-05T00:59:26.825Z,6.20
2019-04-05T01:01:58.000Z,6.20
2019-04-05T01:04:29.133Z,6.20
2019-04-05T01:09:32.659Z,6.20
2019-04-05T01:12:04.969Z,6.20
2019-04-05T01:19:45.035Z,6.10
2019-04-05T01:22:16.325Z,6.10
2019-04-05T01:32:16.421Z,6.20
2019-04-05T01:39:47.214Z,6.10
2019-04-05T01:47:22.190Z,6.20
2019-04-05T01:49:53.349Z,6.20
2019-04-05T01:54:58.793Z,6.10
2019-04-05T02:05:01.078Z,6.10
2019-04-05T02:07:32.377Z,6.10
2019-04-05T02:12:34.196Z,6.20
2019-04-05T02:15:11.097Z,6.20
2019-04-05T02:20:14.218Z,6.10
2019-04-05T02:25:16.387Z,6.00
2019-04-05T02:27:47.506Z,6.00
2019-04-05T02:30:20.533Z,6.00
2019-04-05T02:32:51.937Z,6.00
2019-04-05T02:45:27.755Z,6.00
2019-04-05T02:48:02.731Z,6.10
2019-04-05T02:50:35.465Z,6.10
2019-04-05T02:55:40.437Z,6.30
2019-04-05T03:05:46.202Z,6.20
2019-04-05T03:08:18.205Z,6.20
2019-04-05T03:21:01.137Z,6.30
2019-04-05T03:23:33.290Z,6.30
2019-04-05T03:28:41.174Z,6.20
2019-04-05T03:36:12.230Z,6.20
2019-04-05T03:56:24.157Z,6.10
2019-04-05T03:58:56.233Z,6.10
2019-04-05T04:08:59.314Z,6.10
2019-04-05T04:31:51.019Z,6.00
2019-04-05T04:34:22.135Z,6.10
2019-04-05T04:39:24.822Z,6.10
2019-04-05T04:41:58.088Z,6.10
2019-04-05T04:47:03.086Z,6.00
2019-04-05T04:49:35.797Z,5.90
2019-04-05T04:52:07.116Z,5.80
2019-04-05T05:04:44.441Z,5.90
2019-04-05T05:19:46.674Z,6.10
2019-04-05T05:24:48.622Z,6.00
2019-04-05T05:29:51.246Z,6.00
2019-04-05T05:32:22.714Z,6.00
2019-04-05T05:35:01.879Z,5.90
2019-04-05T05:37:27.291Z,5.80
2019-04-05T05:42:26.525Z,5.70
2019-04-05T05:49:58.053Z,5.60
2019-04-05T05:52:28.317Z,5.60
2019-04-05T05:54:58.508Z,5.60
2019-04-05T06:00:01.285Z,5.70
2019-04-05T06:05:01.288Z,5.90
2019-04-05T06:10:03.272Z,5.80
2019-04-05T06:12:34.513Z,5.70
2019-04-05T06:20:07.334Z,5.60
2019-04-05T06:27:39.262Z,5.60
2019-04-05T06:35:16.207Z,6.10
2019-04-05T06:40:17.161Z,6.20
2019-04-05T06:45:18.330Z,6.20
2019-04-05T06:50:22.169Z,6.30
2019-04-05T06:52:53.294Z,6.40
2019-04-05T06:55:26.933Z,6.60
2019-04-05T06:57:59.236Z,6.70
2019-04-05T07:03:02.749Z,6.80
2019-04-05T07:05:36.102Z,6.80
2019-04-05T07:08:07.318Z,7.00
2019-04-05T07:13:09.504Z,7.50
2019-04-05T07:18:10.645Z,7.70
2019-04-05T07:25:46.123Z,7.90
2019-04-05T07:28:16.261Z,7.90
2019-04-05T07:30:49.238Z,8.10
2019-04-05T07:33:20.361Z,8.10
2019-04-05T07:38:22.534Z,7.90
2019-04-05T07:43:22.517Z,7.80
2019-04-05T08:05:58.361Z,9.50
2019-04-05T08:08:34.848Z,9.60
2019-04-05T08:11:06.585Z,9.70
2019-04-05T08:16:10.217Z,9.70
2019-04-05T08:26:14.362Z,10.00
2019-04-05T08:33:46.951Z,10.40
2019-04-05T08:36:16.392Z,10.50
2019-04-05T08:38:47.561Z,10.60
2019-04-05T08:43:48.445Z,10.60
2019-04-05T08:48:52.332Z,10.30
2019-04-05T08:58:57.063Z,10.50
2019-04-05T09:09:00.358Z,10.80
2019-04-05T09:11:40.442Z,10.80
2019-04-05T09:14:10.633Z,10.80
2019-04-05T09:36:45.332Z,11.40
2019-04-05T09:39:15.941Z,11.50
2019-04-05T09:41:47.234Z,11.70
2019-04-05T09:49:21.025Z,11.40
2019-04-05T09:51:52.675Z,11.60
2019-04-05T10:01:54.205Z,11.00
2019-04-05T10:06:56.089Z,10.90
2019-04-05T10:09:27.328Z,10.90
2019-04-05T10:14:28.658Z,11.40
2019-04-05T10:22:03.115Z,12.00
2019-04-05T10:37:09.231Z,12.10
2019-04-05T10:42:22.631Z,12.00
2019-04-05T10:47:23.571Z,12.20
2019-04-05T10:50:02.911Z,12.20
2019-04-05T10:54:58.042Z,12.50
2019-04-05T11:00:01.213Z,12.50
2019-04-05T11:02:35.405Z,13.00
2019-04-05T11:05:08.713Z,13.00
2019-04-05T11:10:09.586Z,12.80
2019-04-05T11:12:40.854Z,12.70
2019-04-05T11:15:14.953Z,12.60
2019-04-05T11:25:22.602Z,13.00
2019-04-05T11:32:57.277Z,13.00
2019-04-05T11:35:27.575Z,13.10
2019-04-05T11:37:58.736Z,13.20
2019-04-05T11:40:31.437Z,13.20
2019-04-05T11:43:04.170Z,13.30
2019-04-05T11:45:36.293Z,13.30
2019-04-05T11:48:10.602Z,12.80
2019-04-05T12:00:57.768Z,12.50
2019-04-05T12:03:31.801Z,12.20
2019-04-05T12:11:06.250Z,12.20
2019-04-05T12:13:38.444Z,12.20
2019-04-05T12:23:46.775Z,11.90
2019-04-05T12:34:00.478Z,12.20
2019-04-05T12:39:04.056Z,12.10
2019-04-05T12:41:34.759Z,12.20
2019-04-05T12:44:05.454Z,12.20
2019-04-05T12:51:38.435Z,12.50
2019-04-05T12:56:40.112Z,12.50
2019-04-05T12:59:11.229Z,12.40
2019-04-05T13:01:43.550Z,12.30
2019-04-05T13:06:45.483Z,12.00
2019-04-05T13:09:17.484Z,12.30
2019-04-05T13:14:19.330Z,12.80
2019-04-05T13:26:52.993Z,12.70
2019-04-05T13:29:23.203Z,12.90
2019-04-05T13:31:54.321Z,12.90
2019-04-05T13:34:25.993Z,13.30
2019-04-05T13:36:59.269Z,13.20
2019-04-05T13:39:30.695Z,13.00
2019-04-05T13:42:03.505Z,12.90
2019-04-05T13:47:08.080Z,12.40
2019-04-05T13:52:13.875Z,12.10
2019-04-05T14:04:53.846Z,12.10
2019-04-05T14:07:25.745Z,12.10
2019-04-05T14:09:56.833Z,12.00
2019-04-05T14:15:01.578Z,11.90
2019-04-05T14:17:31.925Z,12.00
2019-04-05T14:20:09.057Z,11.80
2019-04-05T14:22:40.470Z,11.90
2019-04-05T14:30:15.441Z,11.90
2019-04-05T14:32:45.633Z,11.90
2019-04-05T14:35:16.978Z,11.80
2019-04-05T14:37:48.053Z,11.60
2019-04-05T14:40:19.014Z,11.40
2019-04-05T14:42:50.251Z,11.50
2019-04-05T14:47:52.175Z,11.30
2019-04-05T14:50:22.688Z,11.40
2019-04-05T15:00:25.065Z,11.20
2019-04-05T15:05:28.323Z,11.10
2019-04-05T15:20:37.276Z,11.00
2019-04-05T15:28:12.333Z,11.00
2019-04-05T15:30:42.661Z,11.00
2019-04-05T15:33:12.913Z,11.00
2019-04-05T15:35:44.091Z,10.90
2019-04-05T15:45:48.435Z,10.70
2019-04-05T15:53:24.729Z,10.60
2019-04-05T15:55:54.967Z,10.50
2019-04-05T15:58:27.875Z,10.60
2019-04-05T16:00:59.219Z,10.40
2019-04-05T16:06:02.113Z,10.40
2019-04-05T16:11:05.578Z,10.30
2019-04-05T16:16:07.809Z,10.30
2019-04-05T16:18:38.099Z,10.30
2019-04-05T16:26:12.359Z,10.20
2019-04-05T16:28:43.604Z,10.20
2019-04-05T16:31:14.817Z,10.10
2019-04-05T16:38:47.631Z,9.90
2019-04-05T16:43:49.590Z,9.80
2019-04-05T16:46:22.397Z,9.80
2019-04-05T16:51:24.149Z,9.80
2019-04-05T16:56:36.097Z,9.80
2019-04-05T16:59:07.149Z,9.70
2019-04-05T17:01:38.307Z,9.70
2019-04-05T17:04:09.438Z,9.70
2019-04-05T17:09:11.300Z,9.60
2019-04-05T17:11:42.713Z,9.60
2019-04-05T17:21:47.516Z,9.40
2019-04-05T17:29:19.763Z,9.40
2019-04-05T17:34:21.586Z,9.30
2019-04-05T17:36:52.726Z,9.20
2019-04-05T17:39:25.672Z,9.20
2019-04-05T17:41:58.585Z,9.20
2019-04-05T17:44:29.689Z,9.30
2019-04-05T17:57:11.783Z,9.10
2019-04-05T18:07:15.982Z,9.10
2019-04-05T18:09:48.816Z,9.00
2019-04-05T18:12:20.101Z,9.00
2019-04-05T18:14:50.337Z,9.00
2019-04-05T18:19:49.552Z,8.90
2019-04-05T18:24:48.319Z,8.90
2019-04-05T18:34:49.137Z,9.00
2019-04-05T18:39:50.201Z,8.90
2019-04-05T18:47:22.270Z,8.90
2019-04-05T18:50:02.909Z,8.90
2019-04-05T18:52:25.860Z,8.70
2019-04-05T18:54:58.940Z,8.70
2019-04-05T19:00:01.723Z,8.60
2019-04-05T19:02:42.886Z,8.70
2019-04-05T19:07:44.110Z,8.80
2019-04-05T19:12:45.174Z,8.80
2019-04-05T19:15:17.742Z,8.70
2019-04-05T19:23:00.268Z,8.70
2019-04-05T19:48:30.881Z,8.60
2019-04-05T19:50:56.569Z,8.60
2019-04-05T19:53:26.821Z,8.60
2019-04-05T20:03:32.190Z,8.60
2019-04-05T20:06:05.136Z,8.60
2019-04-05T20:11:07.914Z,8.60
2019-04-05T20:28:45.154Z,8.50
2019-04-05T20:33:46.044Z,8.50
2019-04-05T20:38:46.959Z,8.50
2019-04-05T20:41:18.125Z,8.50
2019-04-05T20:46:20.789Z,8.50
2019-04-05T20:51:21.842Z,8.60
2019-04-05T20:53:53.982Z,8.60
2019-04-05T21:01:26.695Z,8.50
2019-04-05T21:03:58.879Z,8.50
2019-04-05T21:06:33.158Z,8.40
2019-04-05T21:19:09.567Z,8.40
2019-04-05T21:24:11.390Z,8.40
2019-04-05T21:36:46.445Z,8.50
2019-04-05T21:39:17.685Z,8.50
2019-04-05T21:41:47.891Z,8.50
2019-04-05T21:59:21.554Z,8.60
2019-04-05T22:01:51.865Z,8.50
2019-04-05T22:04:23.033Z,8.50
2019-04-05T22:06:54.129Z,8.50
2019-04-05T22:29:34.993Z,8.50
2019-04-05T22:34:38.931Z,8.40
2019-04-05T22:39:39.949Z,8.50
2019-04-05T22:47:14.354Z,8.40
2019-04-05T22:49:44.501Z,8.40
2019-04-05T22:57:18.155Z,8.50
2019-04-05T23:04:48.116Z,8.50
2019-04-05T23:07:21.935Z,8.50
2019-04-05T23:09:53.593Z,8.40
2019-04-05T23:14:57.259Z,8.50
2019-04-05T23:24:59.814Z,8.50
2019-04-05T23:27:29.257Z,8.50
2019-04-05T23:29:59.497Z,8.50
2019-04-05T23:34:59.025Z,8.50
2019-04-05T23:37:30.249Z,8.50
2019-04-05T23:42:32.248Z,8.50
2019-04-05T23:50:06.894Z,8.60
2019-04-05T23:55:08.961Z,8.50
